Time;durP1;ratioP1;P1;durP2;ratioP2;P2;SDS_P1;SDS_P2;PMS_P1;PMS_P2;Temp;Humidity;BMP_temperature;BMP_pressure;BME280_temperature;BME280_humidity;BME280_pressure;Samples;Min_cycle;Max_cycle;Signal;HPM_P1;HPM_P2
2022/07/18 00:00:49;;;;;;;2.27;0.60;;;;;;;13.01;68.96;100626.91;1769116;80;20994;-72
2022/07/18 00:03:15;;;;;;;2.27;0.95;;;;;;;12.95;69.12;100622.63;1756506;81;22323;-71
2022/07/18 00:05:42;;;;;;;1.95;0.70;;;;;;;12.91;69.31;100622.03;1758679;80;20953;-75
2022/07/18 00:08:09;;;;;;;0.85;0.60;;;;;;;12.90;69.45;100623.01;1760339;79;21008;-74
2022/07/18 00:10:35;;;;;;;1.50;1.00;;;;;;;12.89;69.69;100626.63;1758457;81;21052;-73
2022/07/18 00:13:02;;;;;;;2.72;0.70;;;;;;;12.87;69.79;100633.40;1759907;80;20944;-74
2022/07/18 00:15:28;;;;;;;1.35;0.70;;;;;;;12.87;69.91;100622.80;1757512;80;21821;-71
2022/07/18 00:17:55;;;;;;;2.83;0.85;;;;;;;12.84;70.21;100641.63;1758207;80;21026;-73
2022/07/18 00:20:21;;;;;;;0.90;0.70;;;;;;;12.83;70.33;100637.75;1758513;81;20944;-73
2022/07/18 00:22:49;;;;;;;1.07;0.80;;;;;;;12.83;70.44;100640.40;1763886;80;20916;-72
2022/07/18 00:25:16;;;;;;;3.65;0.88;;;;;;;12.80;70.76;100636.20;1759255;80;21065;-72
2022/07/18 00:27:44;;;;;;;2.67;0.90;;;;;;;12.79;70.97;100641.64;1759953;80;21578;-73
2022/07/18 00:30:11;;;;;;;1.82;0.95;;;;;;;12.78;71.13;100644.78;1758051;80;21001;-72
2022/07/18 00:32:38;;;;;;;1.22;0.70;;;;;;;12.77;71.27;100642.27;1760924;81;20915;-72
2022/07/18 00:35:05;;;;;;;1.07;0.80;;;;;;;12.76;71.47;100641.91;1760075;81;21023;-71
2022/07/18 00:37:32;;;;;;;0.88;0.88;;;;;;;12.76;71.56;100649.38;1760921;80;21374;-73
2022/07/18 00:40:00;;;;;;;1.87;0.80;;;;;;;12.75;71.73;100643.72;1755923;81;20928;-72
2022/07/18 00:42:26;;;;;;;0.88;0.68;;;;;;;12.75;71.90;100650.84;1760105;80;21006;-74
2022/07/18 00:44:55;;;;;;;2.92;0.80;;;;;;;12.73;71.92;100642.14;1767511;80;20962;-73
2022/07/18 00:47:22;;;;;;;2.08;0.80;;;;;;;12.73;72.01;100645.63;1761878;80;20952;-73
2022/07/18 00:49:49;;;;;;;1.47;0.82;;;;;;;12.72;72.10;100643.12;1762403;79;20942;-73
2022/07/18 00:52:15;;;;;;;3.02;0.80;;;;;;;12.70;72.20;100647.23;1767819;80;21870;-73
2022/07/18 00:54:42;;;;;;;1.55;0.90;;;;;;;12.70;72.24;100650.36;1759160;80;20954;-72
2022/07/18 00:57:11;;;;;;;1.22;0.82;;;;;;;12.70;72.22;100646.39;1766001;80;21494;-73
2022/07/18 01:02:24;;;;;;;0.95;0.82;;;;;;;12.61;72.62;100648.00;1746067;80;21465;-73
2022/07/18 01:04:51;;;;;;;1.35;0.98;;;;;;;12.57;73.00;100643.45;1768670;79;22544;-73
2022/07/18 01:07:17;;;;;;;1.77;0.93;;;;;;;12.54;73.16;100647.66;1760069;80;21408;-71
2022/07/18 01:09:44;;;;;;;1.10;0.82;;;;;;;12.54;73.22;100645.49;1727915;80;20955;-73
2022/07/18 01:12:11;;;;;;;2.02;0.90;;;;;;;12.53;73.27;100643.33;1772596;80;20936;-72
2022/07/18 01:14:37;;;;;;;1.55;0.90;;;;;;;12.55;73.27;100644.55;1759033;81;21001;-74
2022/07/18 01:17:17;;;;;;;1.85;0.70;;;;;;;12.53;73.46;100638.03;1762164;80;21884;-73
2022/07/18 01:19:44;;;;;;;1.55;1.00;;;;;;;12.52;73.55;100636.35;1744160;82;21121;-73
2022/07/18 01:22:11;;;;;;;1.70;0.90;;;;;;;12.52;73.58;100630.22;1742021;80;21098;-72
2022/07/18 01:24:40;;;;;;;1.87;0.90;;;;;;;12.53;73.61;100627.91;1767930;80;20968;-73
2022/07/18 01:27:07;;;;;;;1.07;0.90;;;;;;;12.54;73.53;100627.78;1754911;80;21002;-72
2022/07/18 01:29:33;;;;;;;2.95;0.85;;;;;;;12.56;73.51;100621.90;1752829;80;21894;-72
2022/07/18 01:32:07;;;;;;;2.35;0.93;;;;;;;12.57;73.46;100626.71;1770548;80;21040;-72
2022/07/18 01:34:35;;;;;;;2.10;0.85;;;;;;;12.56;73.50;100633.82;1747352;81;21047;-74
2022/07/18 01:37:03;;;;;;;4.62;1.02;;;;;;;12.55;73.48;100636.12;1751197;81;20964;-72
2022/07/18 01:39:29;;;;;;;2.02;0.90;;;;;;;12.55;73.50;100633.95;1776636;80;20980;-73
2022/07/18 01:42:02;;;;;;;1.85;1.12;;;;;;;12.53;73.45;100630.56;1757799;80;22503;-72
2022/07/18 01:44:29;;;;;;;;;;;;;;;12.51;73.47;100634.67;1758408;80;20967;-73
2022/07/18 01:46:56;;;;;;;1.15;0.82;;;;;;;12.49;73.52;100637.94;1750876;80;20168;-72
2022/07/18 01:49:23;;;;;;;1.57;0.90;;;;;;;12.48;73.52;100636.75;1753291;81;20931;-72
2022/07/18 01:51:51;;;;;;;2.75;0.90;;;;;;;12.46;73.63;100638.20;1760985;80;20945;-73
2022/07/18 01:54:22;;;;;;;5.17;1.10;;;;;;;12.46;73.64;100636.05;1729114;81;22858;-74
2022/07/18 01:56:50;;;;;;;1.37;1.10;;;;;;;12.46;73.60;100639.53;1746469;81;21028;-73
2022/07/18 01:59:17;;;;;;;5.00;1.30;;;;;;;12.47;73.65;100646.99;1756934;80;20983;-72
2022/07/18 02:01:44;;;;;;;2.95;1.20;;;;;;;12.44;73.72;100649.39;1737484;80;21114;-72
2022/07/18 02:04:12;;;;;;;2.02;1.30;;;;;;;12.41;73.97;100651.47;1750752;81;20856;-72
2022/07/18 02:06:38;;;;;;;2.15;1.02;;;;;;;12.38;74.07;100656.54;1751000;80;21903;-73
2022/07/18 02:09:06;;;;;;;1.80;1.02;;;;;;;12.39;74.22;100646.78;1730636;81;20967;-72
2022/07/18 02:11:33;;;;;;;3.62;1.35;;;;;;;12.40;74.29;100651.95;1750084;80;21015;-73
2022/07/18 02:13:59;;;;;;;3.52;1.50;;;;;;;12.41;74.34;100652.30;1752292;81;21423;-72
2022/07/18 02:16:26;;;;;;;4.28;1.30;;;;;;;12.39;74.61;100650.27;1772747;80;21462;-73
2022/07/18 02:18:55;;;;;;;2.35;1.05;;;;;;;12.40;74.65;100663.03;1751198;81;22541;-72
2022/07/18 02:21:22;;;;;;;1.60;1.20;;;;;;;12.42;74.66;100655.79;1752401;80;21343;-72
2022/07/18 02:23:50;;;;;;;1.60;1.20;;;;;;;12.43;74.64;100655.66;1722938;81;21391;-72
2022/07/18 02:26:18;;;;;;;1.77;1.10;;;;;;;12.46;74.66;100654.59;1751849;79;20989;-72
2022/07/18 02:28:44;;;;;;;3.25;1.20;;;;;;;12.45;74.60;100663.02;1749366;80;21043;-72
2022/07/18 02:31:11;;;;;;;2.00;1.37;;;;;;;12.45;74.75;100659.50;1748229;80;22022;-72
2022/07/18 02:33:38;;;;;;;3.33;1.20;;;;;;;12.44;74.85;100660.47;1747605;80;21029;-73
2022/07/18 02:36:05;;;;;;;2.45;1.40;;;;;;;12.44;74.86;100669.26;1741709;80;20991;-73
2022/07/18 02:38:31;;;;;;;2.60;1.47;;;;;;;12.44;74.92;100668.42;1745256;82;20965;-73
2022/07/18 02:40:58;;;;;;;1.95;1.20;;;;;;;12.40;75.05;100666.52;1749606;80;20993;-73
2022/07/18 02:43:24;;;;;;;2.52;1.30;;;;;;;12.40;75.11;100671.81;1747642;80;21689;-73
2022/07/18 02:45:51;;;;;;;2.95;1.20;;;;;;;12.42;75.18;100671.69;1735635;80;20955;-74
2022/07/18 02:48:17;;;;;;;1.40;1.30;;;;;;;12.44;75.16;100673.23;1753471;80;20988;-72
2022/07/18 02:50:45;;;;;;;2.20;1.40;;;;;;;12.45;75.15;100678.05;1747454;80;21005;-73
2022/07/18 02:53:11;;;;;;;1.90;1.30;;;;;;;12.45;75.21;100681.56;1740343;80;20995;-72
2022/07/18 02:55:38;;;;;;;3.02;1.27;;;;;;;12.47;75.27;100686.25;1747102;80;21871;-73
2022/07/18 02:58:04;;;;;;;3.95;1.40;;;;;;;12.46;75.30;100677.95;1743168;82;20932;-72
2022/07/18 03:00:31;;;;;;;2.10;1.20;;;;;;;12.47;75.31;100682.27;1747860;80;21132;-74
2022/07/18 03:02:58;;;;;;;3.02;1.65;;;;;;;12.49;75.35;100686.11;1745911;80;20985;-73
2022/07/18 03:05:24;;;;;;;3.27;1.22;;;;;;;12.47;75.51;100688.90;1746286;80;21034;-72
2022/07/18 03:07:51;;;;;;;9.20;2.42;;;;;;;12.48;75.65;100692.39;1744498;82;21908;-72
2022/07/18 03:10:18;;;;;;;2.33;1.50;;;;;;;12.49;75.77;100688.28;1746287;80;21085;-73
2022/07/18 03:12:45;;;;;;;1.32;1.22;;;;;;;12.52;75.81;100694.64;1745248;82;20951;-73
2022/07/18 03:15:11;;;;;;;2.67;1.27;;;;;;;12.55;75.89;100686.95;1750834;80;21014;-73
2022/07/18 03:17:38;;;;;;;5.60;1.50;;;;;;;12.60;75.86;100689.55;1748197;82;20983;-73
2022/07/18 03:20:06;;;;;;;4.40;1.40;;;;;;;12.64;75.94;100684.83;1762299;80;22576;-73
2022/07/18 03:22:33;;;;;;;1.92;1.25;;;;;;;12.67;75.97;100683.76;1722687;81;21318;-73
2022/07/18 03:25:00;;;;;;;2.72;1.30;;;;;;;12.69;76.03;100684.47;1749599;80;21127;-74
2022/07/18 03:27:26;;;;;;;3.15;1.52;;;;;;;12.74;76.08;100681.80;1754699;81;20969;-73
2022/07/18 03:29:54;;;;;;;2.33;1.32;;;;;;;12.81;76.13;100681.63;1765880;79;21020;-74
2022/07/18 03:32:21;;;;;;;1.55;1.30;;;;;;;12.89;76.13;100691.59;1761135;79;21411;-73
2022/07/18 03:34:48;;;;;;;3.27;1.30;;;;;;;12.93;76.06;100687.70;1750723;81;21436;-72
2022/07/18 03:37:14;;;;;;;3.65;1.25;;;;;;;13.02;75.98;100700.66;1771781;81;20977;-72
2022/07/18 03:39:41;;;;;;;2.77;1.20;;;;;;;13.08;75.90;100701.00;1772551;81;21031;-73
2022/07/18 03:42:08;;;;;;;2.22;1.37;;;;;;;13.12;75.92;100693.16;1764159;79;21387;-72
2022/07/18 03:44:35;;;;;;;2.02;1.10;;;;;;;13.17;75.82;100697.56;1792768;79;22599;-71
2022/07/18 03:47:03;;;;;;;1.80;1.30;;;;;;;13.23;75.78;100687.45;1767551;81;20929;-71
2022/07/18 03:49:30;;;;;;;3.77;1.40;;;;;;;13.28;75.71;100691.86;1773379;81;20937;-71
2022/07/18 03:51:56;;;;;;;4.85;1.60;;;;;;;13.32;75.63;100694.14;1762007;79;21038;-71
2022/07/18 03:54:23;;;;;;;1.80;1.30;;;;;;;13.37;75.59;100699.88;1773235;81;20952;-71
2022/07/18 03:56:50;;;;;;;1.77;1.22;;;;;;;13.40;75.45;100696.11;1759198;79;21937;-71
2022/07/18 03:59:17;;;;;;;4.70;1.40;;;;;;;13.43;75.35;100702.50;1765468;81;21016;-71
2022/07/18 04:01:43;;;;;;;2.98;1.50;;;;;;;13.44;75.28;100701.03;1754793;79;21007;-72
2022/07/18 04:04:11;;;;;;;2.45;1.35;;;;;;;13.48;75.22;100706.91;1771627;79;20988;-72
2022/07/18 04:06:40;;;;;;;1.62;1.45;;;;;;;13.52;75.20;100707.02;1767565;80;21502;-72
2022/07/18 04:09:06;;;;;;;4.62;1.50;;;;;;;13.56;75.05;100703.59;1753792;79;21923;-73
2022/07/18 04:11:33;;;;;;;1.98;1.50;;;;;;;13.59;75.08;100692.70;1784971;79;20952;-72
2022/07/18 04:14:00;;;;;;;3.77;1.47;;;;;;;13.66;75.08;100703.98;1766143;79;20946;-71
2022/07/18 04:16:26;;;;;;;2.87;1.57;;;;;;;13.73;75.14;100704.30;1775563;79;21126;-73
2022/07/18 04:18:53;;;;;;;1.70;1.50;;;;;;;13.81;75.10;100704.97;1771677;81;21399;-73
2022/07/18 04:21:20;;;;;;;3.10;1.40;;;;;;;13.87;74.96;100707.06;1759668;79;22520;-74
2022/07/18 04:23:48;;;;;;;1.98;1.30;;;;;;;13.94;74.93;100705.55;1746746;79;21027;-73
2022/07/18 04:26:14;;;;;;;2.65;1.32;;;;;;;14.03;74.82;100705.58;1772127;79;21032;-72
2022/07/18 04:28:41;;;;;;;2.72;1.65;;;;;;;14.11;74.63;100707.56;1763241;79;20996;-72
2022/07/18 04:31:07;;;;;;;1.98;1.47;;;;;;;14.20;74.51;100717.86;1766862;79;20987;-71
2022/07/18 04:33:35;;;;;;;2.25;1.52;;;;;;;14.27;74.37;100713.17;1758994;79;21977;-73
2022/07/18 04:36:02;;;;;;;2.27;1.30;;;;;;;14.31;74.10;100715.92;1769116;79;20912;-73
2022/07/18 04:38:33;;;;;;;3.40;1.40;;;;;;;14.37;74.14;100715.84;1756659;80;21060;-73
2022/07/18 04:40:56;;;;;;;2.12;1.30;;;;;;;14.44;73.94;100716.14;1757363;80;21050;-73
2022/07/18 04:43:23;;;;;;;3.08;1.40;;;;;;;14.52;73.87;100719.82;1764850;79;21073;-73
2022/07/18 04:45:50;;;;;;;2.60;1.32;;;;;;;14.61;73.79;100722.14;1757695;81;21810;-73
2022/07/18 04:48:17;;;;;;;1.80;1.50;;;;;;;14.70;73.57;100731.94;1758186;80;21071;-73
2022/07/18 04:50:43;;;;;;;1.85;1.42;;;;;;;14.76;73.28;100724.71;1765902;80;20949;-74
2022/07/18 04:53:10;;;;;;;1.98;1.30;;;;;;;14.80;73.02;100730.61;1758175;80;21496;-73
2022/07/18 04:55:37;;;;;;;2.10;1.30;;;;;;;14.85;72.90;100730.52;1757403;80;20983;-73
2022/07/18 04:58:05;;;;;;;2.47;1.50;;;;;;;14.92;72.75;100736.62;1771175;79;21923;-72
2022/07/18 05:00:31;;;;;;;1.40;1.30;;;;;;;14.95;72.58;100734.50;1779796;80;21476;-74
2022/07/18 05:02:58;;;;;;;3.37;1.60;;;;;;;15.01;72.51;100737.10;1769124;79;21027;-73
2022/07/18 05:05:26;;;;;;;1.90;1.60;;;;;;;15.07;72.53;100734.72;1763676;80;21034;-71
2022/07/18 05:07:53;;;;;;;3.22;1.60;;;;;;;15.15;72.28;100740.64;1758529;79;20965;-73
2022/07/18 05:10:23;;;;;;;3.75;1.75;;;;;;;15.21;72.20;100743.23;1752221;80;20903;-73
2022/07/18 05:12:53;;;;;;;2.25;1.30;;;;;;;15.26;71.94;100741.84;1757738;79;21074;-72
2022/07/18 05:15:21;;;;;;;2.25;1.55;;;;;;;15.36;72.08;100740.48;1759448;79;21070;-75
2022/07/18 05:17:48;;;;;;;1.57;1.42;;;;;;;15.43;71.82;100744.23;1703344;81;21004;-73
2022/07/18 05:20:17;;;;;;;2.00;1.32;;;;;;;15.51;71.57;100732.87;1754737;79;21058;-72
2022/07/18 05:22:44;;;;;;;1.57;1.20;;;;;;;15.59;71.31;100727.66;1769521;79;21889;-73
2022/07/18 05:25:11;;;;;;;2.10;1.40;;;;;;;15.66;71.01;100726.97;1758469;80;20862;-72
2022/07/18 05:27:39;;;;;;;2.55;1.57;;;;;;;15.75;70.89;100729.25;1764890;80;21395;-74
2022/07/18 05:30:07;;;;;;;2.27;1.30;;;;;;;15.82;70.43;100726.33;1757996;79;21013;-73
2022/07/18 05:32:34;;;;;;;12.18;10.78;;;;;;;15.84;69.91;100728.87;1713124;82;21016;-74
2022/07/18 05:35:01;;;;;;;6.12;3.25;;;;;;;15.84;69.76;100732.86;1744111;81;22655;-75
2022/07/18 05:37:28;;;;;;;4.08;2.83;;;;;;;15.84;69.45;100728.37;1751183;81;20979;-73
2022/07/18 05:39:54;;;;;;;2.77;1.90;;;;;;;15.84;69.34;100739.03;1737939;82;21011;-73
2022/07/18 05:42:21;;;;;;;20.45;17.62;;;;;;;15.88;69.54;100736.41;1745604;80;21015;-76
2022/07/18 05:44:47;;;;;;;4.67;3.95;;;;;;;15.97;69.77;100736.02;1747174;80;20992;-73
2022/07/18 05:47:15;;;;;;;3.83;2.00;;;;;;;16.11;69.16;100730.17;1743346;81;20973;-75
2022/07/18 05:49:42;;;;;;;2.62;1.55;;;;;;;16.24;68.51;100731.18;1719478;82;20943;-74
2022/07/18 05:52:09;;;;;;;1.75;1.45;;;;;;;16.38;68.06;100735.98;1760159;80;20944;-72
2022/07/18 05:54:36;;;;;;;1.50;1.40;;;;;;;16.48;66.83;100738.09;1756311;81;21060;-73
2022/07/18 05:57:03;;;;;;;2.70;1.45;;;;;;;16.49;66.24;100732.26;1761695;80;21054;-71
2022/07/18 05:59:29;;;;;;;2.50;1.37;;;;;;;16.52;66.43;100735.98;1762432;80;21902;-74
2022/07/18 06:01:56;;;;;;;2.35;1.55;;;;;;;16.60;66.35;100742.73;1759898;80;21548;-71
2022/07/18 06:04:22;;;;;;;3.62;1.80;;;;;;;16.68;66.39;100745.48;1759177;80;21011;-74
2022/07/18 06:06:49;;;;;;;4.22;1.70;;;;;;;16.73;65.85;100747.70;1769861;80;21058;-70
2022/07/18 06:09:17;;;;;;;3.20;2.72;;;;;;;16.74;65.81;100746.22;1757894;80;21024;-74
2022/07/18 06:11:44;;;;;;;13.72;11.40;;;;;;;16.78;65.40;100740.07;1760202;80;22554;-72
2022/07/18 06:14:11;;;;;;;3.12;2.05;;;;;;;16.82;64.69;100744.97;1737579;81;21366;-74
2022/07/18 06:16:38;;;;;;;1.95;1.72;;;;;;;16.87;64.19;100748.00;1738087;80;21005;-73
2022/07/18 06:19:05;;;;;;;6.08;2.08;;;;;;;16.90;64.10;100733.53;1747084;80;21136;-73
2022/07/18 06:21:32;;;;;;;2.92;1.60;;;;;;;16.96;63.98;100734.23;1741245;81;21046;-75
2022/07/18 06:23:59;;;;;;;5.40;1.80;;;;;;;17.08;64.40;100738.36;1751437;80;21978;-73
2022/07/18 06:26:26;;;;;;;3.80;1.80;;;;;;;17.27;64.57;100733.30;1746287;81;20945;-75
2022/07/18 06:28:53;;;;;;;3.12;1.70;;;;;;;17.37;63.38;100744.73;1745419;80;20989;-72
2022/07/18 06:31:20;;;;;;;3.05;1.80;;;;;;;17.33;62.65;100741.19;1752293;80;20948;-74
2022/07/18 06:33:46;;;;;;;3.12;1.80;;;;;;;17.30;62.33;100739.67;1754781;80;20955;-70
2022/07/18 06:36:13;;;;;;;2.15;1.50;;;;;;;17.32;62.73;100740.35;1750309;80;21950;-74
2022/07/18 06:38:40;;;;;;;3.83;1.80;;;;;;;17.42;62.45;100729.06;1752834;80;21051;-76
2022/07/18 06:41:08;;;;;;;2.62;1.77;;;;;;;17.52;62.54;100734.80;1757308;80;21057;-79
2022/07/18 06:43:37;;;;;;;1.80;1.50;;;;;;;17.60;61.75;100730.84;1730476;81;21111;-80
2022/07/18 06:46:04;;;;;;;3.95;1.60;;;;;;;17.61;61.15;100728.52;1734128;81;20983;-79
2022/07/18 06:48:33;;;;;;;1.75;1.60;;;;;;;17.69;61.16;100725.89;1755527;80;21826;-78
2022/07/18 06:51:01;;;;;;;4.25;1.72;;;;;;;17.82;60.78;100722.80;1721788;80;20947;-74
2022/07/18 06:53:28;;;;;;;2.52;1.50;;;;;;;17.87;60.50;100726.67;1720758;81;20976;-71
2022/07/18 06:55:55;;;;;;;18.98;14.70;;;;;;;17.88;60.15;100730.19;1720153;82;21469;-74
2022/07/18 06:58:22;;;;;;;4.10;3.02;;;;;;;17.93;60.54;100734.03;1720580;82;20999;-74
2022/07/18 07:00:51;;;;;;;3.95;2.47;;;;;;;18.07;60.63;100732.60;1727998;81;22310;-71
2022/07/18 07:03:17;;;;;;;2.72;2.00;;;;;;;18.19;60.77;100737.98;1757713;80;21043;-71
2022/07/18 07:05:44;;;;;;;2.58;1.92;;;;;;;18.24;60.48;100736.17;1753424;80;20943;-71
2022/07/18 07:08:11;;;;;;;2.55;2.00;;;;;;;18.31;60.73;100735.84;1756458;80;20979;-71
2022/07/18 07:10:38;;;;;;;3.08;2.20;;;;;;;18.46;60.76;100730.20;1757679;80;21483;-72
2022/07/18 07:13:05;;;;;;;3.65;1.80;;;;;;;18.52;58.81;100739.39;1747051;80;22283;-70
2022/07/18 07:15:31;;;;;;;2.98;1.80;;;;;;;18.54;58.60;100733.41;1694176;82;21135;-72
2022/07/18 07:17:58;;;;;;;3.60;1.80;;;;;;;18.52;58.70;100734.88;1756782;80;21066;-71
2022/07/18 07:20:24;;;;;;;3.08;1.77;;;;;;;18.51;58.45;100735.05;1746230;81;21091;-73
2022/07/18 07:22:54;;;;;;;2.52;1.50;;;;;;;18.58;59.14;100734.23;1751179;81;20957;-72
2022/07/18 07:25:24;;;;;;;2.87;1.50;;;;;;;18.72;58.75;100728.78;1755049;80;21899;-69
2022/07/18 07:27:52;;;;;;;1.85;1.32;;;;;;;18.71;56.96;100735.61;1747286;80;21000;-68
2022/07/18 07:30:18;;;;;;;2.67;1.62;;;;;;;18.62;57.04;100732.05;1746232;81;21026;-71
2022/07/18 07:32:47;;;;;;;3.60;1.57;;;;;;;18.56;57.34;100735.41;1752749;80;21049;-70
2022/07/18 07:35:15;;;;;;;3.30;1.62;;;;;;;18.57;57.44;100722.36;1762294;80;21066;-72
2022/07/18 07:37:48;;;;;;;4.15;1.55;;;;;;;18.65;57.49;100730.44;1724468;81;21886;-80
2022/07/18 07:40:15;;;;;;;2.83;1.43;;;;;;;18.79;57.65;100720.40;1700419;81;21057;-73
2022/07/18 07:42:42;;;;;;;2.10;1.20;;;;;;;18.94;56.07;100727.28;1756763;80;21080;-71
2022/07/18 07:45:10;;;;;;;7.53;1.80;;;;;;;19.02;55.02;100725.94;1749535;80;20995;-72
2022/07/18 07:47:37;;;;;;;2.17;1.40;;;;;;;19.05;54.72;100721.58;1747409;81;21016;-71
2022/07/18 07:50:05;;;;;;;2.77;1.40;;;;;;;19.15;55.62;100719.56;1746417;80;21878;-73
2022/07/18 07:52:32;;;;;;;1.30;1.20;;;;;;;19.31;55.16;100726.75;1708499;82;21515;-73
2022/07/18 07:54:59;;;;;;;2.62;1.57;;;;;;;19.43;54.19;100724.55;1748634;80;21064;-72
2022/07/18 07:57:27;;;;;;;2.22;1.20;;;;;;;19.52;54.51;100732.06;1736097;81;20993;-72
2022/07/18 07:59:54;;;;;;;1.60;0.90;;;;;;;19.62;53.92;100725.53;1718025;82;21052;-73
2022/07/18 08:02:20;;;;;;;1.75;1.10;;;;;;;19.68;53.84;100724.83;1718177;83;22665;-72
2022/07/18 08:04:47;;;;;;;2.15;1.20;;;;;;;19.82;53.46;100723.80;1718755;83;21000;-71
2022/07/18 08:07:13;;;;;;;1.55;1.12;;;;;;;19.92;53.00;100721.74;1731192;81;21514;-71
2022/07/18 08:09:41;;;;;;;1.82;1.30;;;;;;;20.00;52.49;100726.56;1722767;81;21538;-73
2022/07/18 08:12:09;;;;;;;1.35;1.00;;;;;;;20.04;52.46;100722.19;1716635;81;21042;-72
2022/07/18 08:14:39;;;;;;;4.35;1.80;;;;;;;20.02;52.57;100731.75;1726088;81;22060;-71
2022/07/18 08:17:05;;;;;;;3.52;1.47;;;;;;;20.06;52.69;100738.94;1739866;81;21043;-71
2022/07/18 08:19:32;;;;;;;2.35;1.17;;;;;;;20.11;51.97;100731.21;1742478;80;21079;-72
2022/07/18 08:21:58;;;;;;;2.42;1.32;;;;;;;20.19;52.52;100727.98;1782606;79;20997;-73
2022/07/18 08:24:25;;;;;;;3.77;1.65;;;;;;;20.31;50.98;100729.77;1721747;82;21481;-75
2022/07/18 08:26:51;;;;;;;2.92;1.32;;;;;;;20.33;50.31;100733.61;1750107;80;21891;-73
2022/07/18 08:29:18;;;;;;;3.33;1.40;;;;;;;20.19;50.39;100727.98;1747210;80;22177;-73
2022/07/18 08:31:44;;;;;;;3.40;1.30;;;;;;;20.10;51.12;100726.86;1714608;81;21075;-74
2022/07/18 08:34:11;;;;;;;5.30;3.52;;;;;;;20.18;52.07;100721.47;1682693;83;21041;-72
2022/07/18 08:36:38;;;;;;;9.83;5.47;;;;;;;20.38;51.77;100721.86;1755796;80;21032;-71
2022/07/18 08:39:05;;;;;;;2.50;1.95;;;;;;;20.46;50.33;100721.80;1750936;81;21585;-71
2022/07/18 08:41:33;;;;;;;5.17;3.55;;;;;;;20.53;50.52;100717.41;1739110;81;21003;-70
2022/07/18 08:43:59;;;;;;;3.35;1.80;;;;;;;20.66;50.94;100718.18;1732324;81;21435;-71
2022/07/18 08:46:26;;;;;;;5.45;3.00;;;;;;;20.93;50.78;100721.63;1742333;81;21043;-71
2022/07/18 08:48:55;;;;;;;3.20;1.60;;;;;;;21.07;48.94;100726.23;1742258;81;21040;-69
2022/07/18 08:51:22;;;;;;;3.05;1.60;;;;;;;21.03;48.78;100726.75;1744271;81;21834;-72
2022/07/18 08:53:51;;;;;;;3.77;3.20;;;;;;;21.02;49.31;100733.97;1741414;81;21049;-70
2022/07/18 08:56:18;;;;;;;6.10;4.92;;;;;;;21.02;49.25;100737.17;1751144;80;21376;-71
2022/07/18 08:58:46;;;;;;;3.87;2.12;;;;;;;21.07;48.97;100736.97;1747119;81;21500;-72
2022/07/18 09:01:13;;;;;;;1.82;1.50;;;;;;;21.18;48.86;100729.48;1728888;81;21030;-72
2022/07/18 09:03:40;;;;;;;2.30;1.45;;;;;;;21.24;48.91;100733.63;1750093;80;21823;-71
2022/07/18 09:06:13;;;;;;;2.40;1.35;;;;;;;21.28;48.78;100732.78;1721599;82;22315;-71
2022/07/18 09:08:46;;;;;;;3.40;1.32;;;;;;;21.28;48.95;100726.06;1723835;81;21112;-72
2022/07/18 09:11:13;;;;;;;2.67;1.55;;;;;;;21.35;48.20;100719.78;1741211;81;21070;-71
2022/07/18 09:13:42;;;;;;;3.65;1.55;;;;;;;21.42;48.05;100719.38;1717307;81;21518;-72
2022/07/18 09:16:11;;;;;;;5.90;1.50;;;;;;;21.52;47.82;100723.14;1715464;82;21838;-71
2022/07/18 09:18:42;;;;;;;6.60;1.50;;;;;;;21.58;47.90;100719.70;1754377;80;21398;-71
2022/07/18 09:21:15;;;;;;;3.90;1.50;;;;;;;21.63;47.38;100721.84;1724383;80;21554;-70
2022/07/18 09:23:44;;;;;;;5.17;1.60;;;;;;;21.74;47.77;100711.13;1748480;80;21012;-71
2022/07/18 09:26:12;;;;;;;2.17;1.40;;;;;;;21.86;47.73;100708.28;1746418;81;21017;-70
2022/07/18 09:28:49;;;;;;;3.08;1.40;;;;;;;21.96;47.08;100708.31;1748847;80;21964;-70
2022/07/18 09:31:27;;;;;;;3.87;1.20;;;;;;;21.94;47.69;100716.25;1745378;81;21024;-70
2022/07/18 09:34:02;;;;;;;2.27;1.32;;;;;;;22.04;47.68;100716.80;1738430;80;21051;-72
2022/07/18 09:36:29;;;;;;;1.77;1.20;;;;;;;22.13;47.27;100717.05;1737041;82;21039;-69
2022/07/18 09:38:56;;;;;;;3.72;1.35;;;;;;;22.18;47.04;100721.33;1745635;80;21510;-70
2022/07/18 09:41:25;;;;;;;8.13;1.87;;;;;;;22.28;47.60;100721.03;1701109;81;21991;-70
2022/07/18 09:43:51;;;;;;;4.67;1.30;;;;;;;22.46;46.42;100714.71;1738640;81;21438;-70
2022/07/18 09:46:18;;;;;;;1.77;1.00;;;;;;;22.64;46.58;100710.23;1737628;82;21534;-70
2022/07/18 09:48:45;;;;;;;1.60;1.10;;;;;;;22.83;46.24;100711.45;1759357;81;21015;-70
2022/07/18 09:51:11;;;;;;;8.13;1.80;;;;;;;22.93;45.81;100712.50;1728768;81;21070;-70
2022/07/18 09:53:42;;;;;;;2.27;1.02;;;;;;;22.93;45.73;100712.50;1760804;81;21957;-71
2022/07/18 09:56:22;;;;;;;1.75;1.05;;;;;;;22.97;45.69;100712.42;1750091;79;20963;-69
2022/07/18 09:58:56;;;;;;;3.75;1.12;;;;;;;22.99;42.98;100717.95;1759315;80;21111;-71
2022/07/18 10:01:22;;;;;;;;;;;;;;;22.93;44.40;100719.23;1739874;81;21503;-72
2022/07/18 10:03:50;;;;;;;1.75;1.00;;;;;;;22.97;43.73;100717.81;1757503;81;20175;-72
2022/07/18 10:06:18;;;;;;;2.17;1.12;;;;;;;22.90;44.11;100723.16;1759597;81;21973;-71
2022/07/18 10:08:45;;;;;;;5.65;1.50;;;;;;;22.89;43.56;100718.80;1760140;80;21416;-76
2022/07/18 10:11:13;;;;;;;2.98;1.10;;;;;;;23.01;43.39;100717.76;1741641;81;21020;-73
2022/07/18 10:13:40;;;;;;;3.77;0.80;;;;;;;23.27;43.75;100718.48;1754582;80;21018;-73
2022/07/18 10:16:08;;;;;;;2.37;1.00;;;;;;;23.53;42.40;100716.47;1756572;80;21315;-73
2022/07/18 10:18:40;;;;;;;2.05;1.02;;;;;;;23.79;42.72;100717.17;1757758;79;22294;-71
2022/07/18 10:21:09;;;;;;;2.45;1.20;;;;;;;24.02;41.88;100711.45;1759080;79;21062;-72
2022/07/18 10:23:40;;;;;;;7.08;1.10;;;;;;;24.22;39.76;100718.62;1758728;81;21019;-72
2022/07/18 10:26:21;;;;;;;4.92;1.82;;;;;;;24.22;39.94;100707.82;1758216;80;21032;-72
2022/07/18 10:29:06;;;;;;;2.85;2.17;;;;;;;24.30;41.36;100700.03;1755584;80;21018;-72
2022/07/18 10:31:39;;;;;;;2.75;1.50;;;;;;;24.48;40.55;100700.31;1753195;80;21892;-74
2022/07/18 10:34:10;;;;;;;9.23;6.97;;;;;;;24.53;39.68;100699.20;1748922;81;22222;-72
2022/07/18 10:36:54;;;;;;;8.28;6.60;;;;;;;24.56;39.90;100700.66;1737923;80;21023;-73
2022/07/18 10:39:27;;;;;;;;;;;;;;;24.64;39.26;100712.61;1732039;82;21091;-73
2022/07/18 10:42:03;;;;;;;3.60;1.25;;;;;;;24.52;38.71;100699.41;1662534;84;20197;-72
2022/07/18 10:44:39;;;;;;;1.57;0.90;;;;;;;24.48;38.70;100700.31;1744031;80;22892;-73
2022/07/18 10:47:17;;;;;;;12.80;1.60;;;;;;;24.53;38.43;100690.27;1779220;79;21046;-73
2022/07/18 10:49:58;;;;;;;2.95;1.05;;;;;;;24.61;39.74;100691.92;1751586;81;21076;-73
2022/07/18 10:52:36;;;;;;;2.25;1.10;;;;;;;24.75;37.68;100687.69;1752345;80;21028;-74
2022/07/18 10:55:18;;;;;;;3.80;1.15;;;;;;;24.74;37.46;100687.90;1754034;80;21129;-73
2022/07/18 10:57:54;;;;;;;3.62;1.00;;;;;;;24.87;38.50;100683.84;1754763;81;22327;-73
2022/07/18 11:00:28;;;;;;;2.08;1.00;;;;;;;25.18;39.10;100676.47;1754504;81;21084;-73
2022/07/18 11:03:11;;;;;;;2.45;1.02;;;;;;;25.51;38.11;100675.59;1754104;81;21047;-73
2022/07/18 11:05:51;;;;;;;6.87;1.12;;;;;;;25.68;38.09;100671.37;1732785;81;21620;-75
2022/07/18 11:08:19;;;;;;;1.20;0.90;;;;;;;25.88;36.31;100683.52;1736292;81;21548;-73
2022/07/18 11:10:54;;;;;;;2.10;1.10;;;;;;;25.81;35.82;100673.23;1753454;80;21592;-71
2022/07/18 11:13:28;;;;;;;1.52;1.00;;;;;;;25.82;36.19;100676.23;1752054;80;21496;-73
2022/07/18 11:16:06;;;;;;;3.65;1.00;;;;;;;25.78;35.61;100677.20;1733291;80;21072;-73
2022/07/18 11:18:47;;;;;;;5.05;1.52;;;;;;;25.66;35.81;100683.74;1753120;80;21034;-73
2022/07/18 11:21:31;;;;;;;3.90;1.05;;;;;;;25.52;35.45;100687.55;1755413;80;21039;-73
2022/07/18 11:24:09;;;;;;;5.55;1.22;;;;;;;25.29;36.32;100690.72;1752313;80;21908;-74
2022/07/18 11:26:35;;;;;;;2.70;1.37;;;;;;;25.32;36.15;100690.30;1758318;80;21027;-73
2022/07/18 11:29:09;;;;;;;11.00;8.15;;;;;;;25.52;36.36;100688.89;1766821;80;21019;-71
2022/07/18 11:31:50;;;;;;;6.08;4.78;;;;;;;25.82;34.86;100677.59;1746217;80;21015;-71
2022/07/18 11:34:35;;;;;;;5.70;1.90;;;;;;;25.98;34.52;100674.94;1750777;80;21015;-71